David L. Griggs — WDE5778 — position and weather

sailwx.info

Track history (hours):
 
Tides and Currents Weather Stations Pressure Air Temp Water Temp Dewpoint Dewpoint Depression Visibility Wind Speed Wind Dir Waves Ship Positions

David L. Griggs

Owner: Marquette Transportation Company, LLC, Paducah, KY. More information available from US FCC via Universal Licensing System and Coast Guard Vessel Documentation Center.

Last reported at 2017-Apr-19 21:26 UTC. Time now 2017-Apr-28 08:31 UTC.
Position N 38°52' W 090°33'.
Warning: this ship's position is 8 days out of date.

Length 50 m; draft 3.3 m.

Type: Tow > 200 m length. MMSI: 367371510.

Date/timePositionNaut miles runAvg speedWind from/ knotsBaromVisibWave heightAir tempDewpointWater temp
2017-Apr-19 21:26N 38°52' W 090°33'3 6.5
2017-Apr-19 21:01N 38°55' W 090°31'3 6.4
2017-Apr-19 20:31N 38°57' W 090°28'0 0.3
2017-Apr-19 20:01N 38°57' W 090°28'0 0.0
2017-Apr-19 19:31N 38°57' W 090°28'3 5.2
2017-Apr-19 19:00N 38°58' W 090°25'1 1.4
2017-Apr-19 18:31N 38°58' W 090°24'1 1.7
2017-Apr-19 18:00N 38°57' W 090°23'1 2.5
2017-Apr-19 17:30N 38°57' W 090°21'3 5.0
2017-Apr-19 17:00N 38°55' W 090°19'3 5.0
2017-Apr-19 16:30N 38°55' W 090°16'2 4.4
2017-Apr-19 15:58N 38°54' W 090°13'3 0.2
2017-Apr-18 23:14N 38°52' W 090°09'2 4.2
2017-Apr-18 22:49N 38°53' W 090°11'2 7.6
2017-Apr-18 22:30N 38°55' W 090°14'4 7.1
2017-Apr-18 22:00N 38°55' W 090°18'4 7.1
2017-Apr-18 21:30N 38°57' W 090°22'3 6.9
2017-Apr-18 21:01N 38°57' W 090°26'3 6.2
2017-Apr-18 20:30N 38°56' W 090°30'  
Track history (hours):
 
Tides and Currents Weather Stations Pressure Air Temp Water Temp Dewpoint Dewpoint Depression Visibility Wind Speed Wind Dir Waves Ship Positions

David L. Griggs

Owner: Marquette Transportation Company, LLC, Paducah, KY. More information available from US FCC via Universal Licensing System and Coast Guard Vessel Documentation Center.

Last reported at 2017-Apr-19 21:26 UTC. Time now 2017-Apr-28 08:31 UTC.
Position N 38°52' W 090°33'.
Warning: this ship's position is 8 days out of date.

Length 50 m; draft 3.3 m.

Type: Tow > 200 m length. MMSI: 367371510.

Date/timePositionNaut miles runAvg speedWind from/ knotsBaromVisibWave heightAir tempDewpointWater temp
2017-Apr-19 21:26N 38°52' W 090°33'3 6.5
2017-Apr-19 21:01N 38°55' W 090°31'3 6.4
2017-Apr-19 20:31N 38°57' W 090°28'0 0.3
2017-Apr-19 20:01N 38°57' W 090°28'0 0.0
2017-Apr-19 19:31N 38°57' W 090°28'3 5.2
2017-Apr-19 19:00N 38°58' W 090°25'1 1.4
2017-Apr-19 18:31N 38°58' W 090°24'1 1.7
2017-Apr-19 18:00N 38°57' W 090°23'1 2.5
2017-Apr-19 17:30N 38°57' W 090°21'3 5.0
2017-Apr-19 17:00N 38°55' W 090°19'3 5.0
2017-Apr-19 16:30N 38°55' W 090°16'2 4.4
2017-Apr-19 15:58N 38°54' W 090°13'3 0.2
2017-Apr-18 23:14N 38°52' W 090°09'2 4.2
2017-Apr-18 22:49N 38°53' W 090°11'2 7.6
2017-Apr-18 22:30N 38°55' W 090°14'4 7.1
2017-Apr-18 22:00N 38°55' W 090°18'4 7.1
2017-Apr-18 21:30N 38°57' W 090°22'3 6.9
2017-Apr-18 21:01N 38°57' W 090°26'3 6.2
2017-Apr-18 20:30N 38°56' W 090°30'  

Dump ship's entire track history